Terminal Aerodrome Forecast
Issued by NWS Paducah, KY

Home | Current Version | Previous Version | Graphics & Text | Print | Product List | Glossary On
Versions: 1 2 3 4 5 6 7 8 9 10 11 12 13 14 15 16 17
000
FTUS43 KPAH 221722
TAFPAH
TAF
KPAH 221722Z 2218/2318 10005KT P6SM SCT045
     FM230000 VRB02KT P6SM SCT250
      TEMPO 2309/2313 2SM BR
     FM231500 08005KT P6SM FEW040=

USA.gov is the U.S. government's official web portal to all federal, state and local government web resources and services.